WXM80 ListenWXM80 Stop

You find our weather info also at:

UK Metoffice

WeatherCloud

Weather Underground

Northeastern Weather Network

AWEKAS

Citizen Weather Observer Program (CWOP)

HAMweather, WeatherForYou, PWS Weather


Weather Underground History page Text

Daily Summary for February 17, 2017 Units:  Both    English   Metric
« Previous Day
Next Day »
Daily Weekly Monthly Yearly Custom
  High: Low: Average:
Temperature: 40.7 °F /  4.8 °C 27.6 °F /  -2.4 °C 34.1 °F /  1.2 °C
Dew Point: 25.2 °F /  -3.8 °C 18.4 °F /  -7.6 °C 21.5 °F /  -5.8 °C
Humidity: 72 % 46 % 60 %
Wind Speed: 10.1 mph /  16.3 km/h - 4.7 mph /  7.6 km/h
Wind Gust: 19.6 mph /  31.5 km/h - -
Wind:- - West
Pressure: 29.88 in /  1011.7 hPa 29.74 in /  1007 hPa -
Precipitation: 0.00 in /  0 mm    
Historical Graphs
 
 
Tabular Data for February 17, 2017
Time Temperature Dew Point Pressure Wind Wind Speed Wind Gust Humidity Rainfall Rate (Hourly)
00:03 28.3 °F /  -2.1 °C 19.1 °F /  -7.2 °C 29.75 in /  1007.3 hPa WNW 5.0 mph /  8 km/h 18.0 mph /  29 km/h 68 % 0.00 in /  0 mm
00:08 28.3 °F /  -2.1 °C 19.1 °F /  -7.2 °C 29.75 in /  1007.3 hPa WNW 5.0 mph /  8 km/h 12.0 mph /  19.3 km/h 68 % 0.00 in /  0 mm
00:13 28.3 °F /  -2.1 °C 18.7 °F /  -7.4 °C 29.75 in /  1007.3 hPa WNW 5.0 mph /  8 km/h 14.0 mph /  22.5 km/h 67 % 0.00 in /  0 mm
00:18 28.3 °F /  -2.1 °C 19.1 °F /  -7.2 °C 29.75 in /  1007.3 hPa WNW 7.0 mph /  11.3 km/h 13.0 mph /  20.9 km/h 68 % 0.00 in /  0 mm
00:23 28.3 °F /  -2.1 °C 18.4 °F /  -7.6 °C 29.75 in /  1007.3 hPa WNW 6.0 mph /  9.7 km/h 14.0 mph /  22.5 km/h 66 % 0.00 in /  0 mm
00:28 28.3 °F /  -2.1 °C 18.4 °F /  -7.6 °C 29.75 in /  1007.3 hPa WNW 3.0 mph /  4.8 km/h 10.0 mph /  16.1 km/h 66 % 0.00 in /  0 mm
00:33 28.3 °F /  -2.1 °C 18.7 °F /  -7.4 °C 29.75 in /  1007.3 hPa WNW 7.0 mph /  11.3 km/h 12.0 mph /  19.3 km/h 67 % 0.00 in /  0 mm
00:38 28.3 °F /  -2.1 °C 19.1 °F /  -7.2 °C 29.75 in /  1007.3 hPa WNW 6.0 mph /  9.7 km/h 13.0 mph /  20.9 km/h 68 % 0.00 in /  0 mm
00:43 28.3 °F /  -2.1 °C 19.1 °F /  -7.2 °C 29.74 in /  1007 hPa WNW 7.0 mph /  11.3 km/h 12.0 mph /  19.3 km/h 68 % 0.00 in /  0 mm
00:48 28.3 °F /  -2.1 °C 19.1 °F /  -7.2 °C 29.75 in /  1007.3 hPa NW 6.3 mph /  10.1 km/h 11.0 mph /  17.7 km/h 68 % 0.00 in /  0 mm
00:53 28.4 °F /  -2 °C 18.8 °F /  -7.3 °C 29.75 in /  1007.3 hPa NNW 4.7 mph /  7.6 km/h 9.2 mph /  14.8 km/h 67 % 0.00 in /  0 mm
00:58 28.4 °F /  -2 °C 19.2 °F /  -7.1 °C 29.75 in /  1007.3 hPa West 5.8 mph /  9.3 km/h 9.2 mph /  14.8 km/h 68 % 0.00 in /  0 mm
01:03 28.4 °F /  -2 °C 18.8 °F /  -7.3 °C 29.75 in /  1007.3 hPa WNW 3.1 mph /  5 km/h 11.5 mph /  18.5 km/h 67 % 0.00 in /  0 mm
01:08 28.4 °F /  -2 °C 18.8 °F /  -7.3 °C 29.75 in /  1007.3 hPa NW 6.8 mph /  10.9 km/h 13.8 mph /  22.2 km/h 67 % 0.00 in /  0 mm
01:13 28.4 °F /  -2 °C 18.8 °F /  -7.3 °C 29.75 in /  1007.3 hPa West 7.7 mph /  12.4 km/h 12.7 mph /  20.4 km/h 67 % 0.00 in /  0 mm
01:19 28.4 °F /  -2 °C 19.2 °F /  -7.1 °C 29.75 in /  1007.3 hPa WSW 6.9 mph /  11.1 km/h 11.5 mph /  18.5 km/h 68 % 0.00 in /  0 mm
01:24 28.4 °F /  -2 °C 19.2 °F /  -7.1 °C 29.75 in /  1007.3 hPa NW 9.0 mph /  14.5 km/h 14.0 mph /  22.5 km/h 68 % 0.00 in /  0 mm
01:29 28.4 °F /  -2 °C 19.2 °F /  -7.1 °C 29.75 in /  1007.3 hPa West 9.8 mph /  15.8 km/h 14.0 mph /  22.5 km/h 68 % 0.00 in /  0 mm
01:34 28.4 °F /  -2 °C 19.2 °F /  -7.1 °C 29.75 in /  1007.3 hPa WNW 5.4 mph /  8.7 km/h 11.5 mph /  18.5 km/h 68 % 0.00 in /  0 mm
01:39 28.4 °F /  -2 °C 19.2 °F /  -7.1 °C 29.75 in /  1007.3 hPa West 10.1 mph /  16.3 km/h 16.1 mph /  25.9 km/h 68 % 0.00 in /  0 mm
01:44 28.4 °F /  -2 °C 19.2 °F /  -7.1 °C 29.75 in /  1007.3 hPa WNW 5.4 mph /  8.7 km/h 11.5 mph /  18.5 km/h 68 % 0.00 in /  0 mm
01:49 28.4 °F /  -2 °C 19.5 °F /  -6.9 °C 29.75 in /  1007.3 hPa NW 6.3 mph /  10.1 km/h 8.1 mph /  13 km/h 69 % 0.00 in /  0 mm
01:54 28.3 °F /  -2.1 °C 19.4 °F /  -7 °C 29.75 in /  1007.3 hPa NW 4.6 mph /  7.4 km/h 10.4 mph /  16.7 km/h 69 % 0.00 in /  0 mm
01:59 28.3 °F /  -2.1 °C 19.4 °F /  -7 °C 29.75 in /  1007.3 hPa WNW 7.2 mph /  11.6 km/h 11.0 mph /  17.7 km/h 69 % 0.00 in /  0 mm
02:04 28.3 °F /  -2.1 °C 19.4 °F /  -7 °C 29.76 in /  1007.7 hPa WNW 4.9 mph /  7.9 km/h 7.0 mph /  11.3 km/h 69 % 0.00 in /  0 mm
02:09 28.3 °F /  -2.1 °C 19.4 °F /  -7 °C 29.75 in /  1007.3 hPa NNW 3.8 mph /  6.1 km/h 10.4 mph /  16.7 km/h 69 % 0.00 in /  0 mm
02:14 28.2 °F /  -2.1 °C 19.3 °F /  -7.1 °C 29.75 in /  1007.3 hPa WNW 5.0 mph /  8 km/h 8.1 mph /  13 km/h 69 % 0.00 in /  0 mm
02:19 28.2 °F /  -2.1 °C 19.3 °F /  -7.1 °C 29.75 in /  1007.3 hPa West 4.3 mph /  6.9 km/h 13.8 mph /  22.2 km/h 69 % 0.00 in /  0 mm
02:24 28.1 °F /  -2.2 °C 19.2 °F /  -7.1 °C 29.76 in /  1007.7 hPa West 5.3 mph /  8.5 km/h 12.7 mph /  20.4 km/h 69 % 0.00 in /  0 mm
02:29 28.1 °F /  -2.2 °C 19.6 °F /  -6.9 °C 29.76 in /  1007.7 hPa WSW 4.3 mph /  6.9 km/h 10.4 mph /  16.7 km/h 70 % 0.00 in /  0 mm
02:35 28.0 °F /  -2.2 °C 19.1 °F /  -7.2 °C 29.76 in /  1007.7 hPa WSW 4.0 mph /  6.4 km/h 10.4 mph /  16.7 km/h 69 % 0.00 in /  0 mm
02:40 28.0 °F /  -2.2 °C 19.1 °F /  -7.2 °C 29.76 in /  1007.7 hPa West 6.6 mph /  10.6 km/h 10.4 mph /  16.7 km/h 69 % 0.00 in /  0 mm
02:45 28.0 °F /  -2.2 °C 19.1 °F /  -7.2 °C 29.76 in /  1007.7 hPa WNW 6.4 mph /  10.3 km/h 12.7 mph /  20.4 km/h 69 % 0.00 in /  0 mm
02:50 28.0 °F /  -2.2 °C 19.5 °F /  -6.9 °C 29.76 in /  1007.7 hPa WSW 9.2 mph /  14.8 km/h 17.3 mph /  27.8 km/h 70 % 0.00 in /  0 mm
02:55 28.0 °F /  -2.2 °C 19.1 °F /  -7.2 °C 29.76 in /  1007.7 hPa West 8.5 mph /  13.7 km/h 13.8 mph /  22.2 km/h 69 % 0.00 in /  0 mm
03:00 28.0 °F /  -2.2 °C 19.1 °F /  -7.2 °C 29.76 in /  1007.7 hPa West 7.6 mph /  12.2 km/h 16.1 mph /  25.9 km/h 69 % 0.00 in /  0 mm
03:05 28.0 °F /  -2.2 °C 19.5 °F /  -6.9 °C 29.76 in /  1007.7 hPa WNW 3.4 mph /  5.5 km/h 10.4 mph /  16.7 km/h 70 % 0.00 in /  0 mm
03:10 28.0 °F /  -2.2 °C 19.5 °F /  -6.9 °C 29.75 in /  1007.3 hPa NW 3.9 mph /  6.3 km/h 5.0 mph /  8 km/h 70 % 0.00 in /  0 mm
03:15 27.9 °F /  -2.3 °C 19.4 °F /  -7 °C 29.76 in /  1007.7 hPa WNW 5.8 mph /  9.3 km/h 11.0 mph /  17.7 km/h 70 % 0.00 in /  0 mm
03:20 27.9 °F /  -2.3 °C 19.4 °F /  -7 °C 29.75 in /  1007.3 hPa West 3.5 mph /  5.6 km/h 6.9 mph /  11.1 km/h 70 % 0.00 in /  0 mm
03:25 27.9 °F /  -2.3 °C 19.4 °F /  -7 °C 29.76 in /  1007.7 hPa NW 7.3 mph /  11.7 km/h 13.8 mph /  22.2 km/h 70 % 0.00 in /  0 mm
03:30 27.9 °F /  -2.3 °C 19.7 °F /  -6.8 °C 29.76 in /  1007.7 hPa WNW 3.6 mph /  5.8 km/h 6.0 mph /  9.7 km/h 71 % 0.00 in /  0 mm
03:35 27.8 °F /  -2.3 °C 19.3 °F /  -7.1 °C 29.76 in /  1007.7 hPa West 6.4 mph /  10.3 km/h 10.4 mph /  16.7 km/h 70 % 0.00 in /  0 mm
03:41 27.8 °F /  -2.3 °C 19.3 °F /  -7.1 °C 29.76 in /  1007.7 hPa West 4.8 mph /  7.7 km/h 9.2 mph /  14.8 km/h 70 % 0.00 in /  0 mm
03:46 27.8 °F /  -2.3 °C 19.3 °F /  -7.1 °C 29.76 in /  1007.7 hPa West 4.1 mph /  6.6 km/h 10.4 mph /  16.7 km/h 70 % 0.00 in /  0 mm
03:51 27.8 °F /  -2.3 °C 19.3 °F /  -7.1 °C 29.76 in /  1007.7 hPa SW 5.0 mph /  8 km/h 11.5 mph /  18.5 km/h 70 % 0.00 in /  0 mm
03:56 27.8 °F /  -2.3 °C 19.3 °F /  -7.1 °C 29.76 in /  1007.7 hPa WSW 6.7 mph /  10.8 km/h 10.4 mph /  16.7 km/h 70 % 0.00 in /  0 mm
04:01 27.8 °F /  -2.3 °C 19.3 °F /  -7.1 °C 29.76 in /  1007.7 hPa WNW 4.9 mph /  7.9 km/h 8.0 mph /  12.9 km/h 70 % 0.00 in /  0 mm
04:06 27.8 °F /  -2.3 °C 19.6 °F /  -6.9 °C 29.77 in /  1008 hPa WNW 3.1 mph /  5 km/h 5.8 mph /  9.3 km/h 71 % 0.00 in /  0 mm
04:11 27.7 °F /  -2.4 °C 19.5 °F /  -6.9 °C 29.77 in /  1008 hPa WSW 5.0 mph /  8 km/h 10.4 mph /  16.7 km/h 71 % 0.00 in /  0 mm
04:16 27.8 °F /  -2.3 °C 19.6 °F /  -6.9 °C 29.76 in /  1007.7 hPa West 5.7 mph /  9.2 km/h 12.0 mph /  19.3 km/h 71 % 0.00 in /  0 mm
04:21 27.8 °F /  -2.3 °C 19.6 °F /  -6.9 °C 29.77 in /  1008 hPa WNW 4.9 mph /  7.9 km/h 8.0 mph /  12.9 km/h 71 % 0.00 in /  0 mm
04:26 27.7 °F /  -2.4 °C 19.5 °F /  -6.9 °C 29.77 in /  1008 hPa WSW 6.5 mph /  10.5 km/h 10.4 mph /  16.7 km/h 71 % 0.00 in /  0 mm
04:31 27.7 °F /  -2.4 °C 19.5 °F /  -6.9 °C 29.77 in /  1008 hPa WNW 6.6 mph /  10.6 km/h 11.5 mph /  18.5 km/h 71 % 0.00 in /  0 mm
04:36 27.7 °F /  -2.4 °C 19.5 °F /  -6.9 °C 29.76 in /  1007.7 hPa WNW 5.3 mph /  8.5 km/h 8.1 mph /  13 km/h 71 % 0.00 in /  0 mm
04:42 27.7 °F /  -2.4 °C 19.5 °F /  -6.9 °C 29.77 in /  1008 hPa WNW 3.5 mph /  5.6 km/h 8.1 mph /  13 km/h 71 % 0.00 in /  0 mm
04:47 27.7 °F /  -2.4 °C 19.5 °F /  -6.9 °C 29.77 in /  1008 hPa West 6.8 mph /  10.9 km/h 9.2 mph /  14.8 km/h 71 % 0.00 in /  0 mm
04:52 27.7 °F /  -2.4 °C 19.5 °F /  -6.9 °C 29.77 in /  1008 hPa WNW 8.9 mph /  14.3 km/h 15.0 mph /  24.1 km/h 71 % 0.00 in /  0 mm
04:57 27.7 °F /  -2.4 °C 19.5 °F /  -6.9 °C 29.77 in /  1008 hPa West 6.5 mph /  10.5 km/h 12.7 mph /  20.4 km/h 71 % 0.00 in /  0 mm
05:02 27.7 °F /  -2.4 °C 19.5 °F /  -6.9 °C 29.77 in /  1008 hPa WNW 5.4 mph /  8.7 km/h 16.1 mph /  25.9 km/h 71 % 0.00 in /  0 mm
05:07 27.8 °F /  -2.3 °C 19.3 °F /  -7.1 °C 29.77 in /  1008 hPa West 8.5 mph /  13.7 km/h 13.8 mph /  22.2 km/h 70 % 0.00 in /  0 mm
05:12 27.8 °F /  -2.3 °C 19.3 °F /  -7.1 °C 29.77 in /  1008 hPa West 3.5 mph /  5.6 km/h 10.4 mph /  16.7 km/h 70 % 0.00 in /  0 mm
05:17 27.8 °F /  -2.3 °C 19.3 °F /  -7.1 °C 29.77 in /  1008 hPa West 6.3 mph /  10.1 km/h 11.5 mph /  18.5 km/h 70 % 0.00 in /  0 mm
05:22 27.8 °F /  -2.3 °C 19.3 °F /  -7.1 °C 29.78 in /  1008.4 hPa WSW 4.9 mph /  7.9 km/h 19.6 mph /  31.5 km/h 70 % 0.00 in /  0 mm
05:27 27.8 °F /  -2.3 °C 19.3 °F /  -7.1 °C 29.78 in /  1008.4 hPa WSW 4.1 mph /  6.6 km/h 9.0 mph /  14.5 km/h 70 % 0.00 in /  0 mm
05:32 27.8 °F /  -2.3 °C 19.6 °F /  -6.9 °C 29.78 in /  1008.4 hPa West 7.2 mph /  11.6 km/h 11.5 mph /  18.5 km/h 71 % 0.00 in /  0 mm
05:37 27.8 °F /  -2.3 °C 19.6 °F /  -6.9 °C 29.78 in /  1008.4 hPa West 5.6 mph /  9 km/h 11.5 mph /  18.5 km/h 71 % 0.00 in /  0 mm
05:42 27.8 °F /  -2.3 °C 19.6 °F /  -6.9 °C 29.78 in /  1008.4 hPa WNW 5.2 mph /  8.4 km/h 13.0 mph /  20.9 km/h 71 % 0.00 in /  0 mm
05:47 27.8 °F /  -2.3 °C 19.6 °F /  -6.9 °C 29.78 in /  1008.4 hPa WSW 7.3 mph /  11.7 km/h 12.0 mph /  19.3 km/h 71 % 0.00 in /  0 mm
05:52 27.8 °F /  -2.3 °C 19.6 °F /  -6.9 °C 29.78 in /  1008.4 hPa West 6.5 mph /  10.5 km/h 11.5 mph /  18.5 km/h 71 % 0.00 in /  0 mm
05:58 27.8 °F /  -2.3 °C 19.6 °F /  -6.9 °C 29.78 in /  1008.4 hPa West 6.2 mph /  10 km/h 11.5 mph /  18.5 km/h 71 % 0.00 in /  0 mm
06:03 27.8 °F /  -2.3 °C 19.3 °F /  -7.1 °C 29.78 in /  1008.4 hPa West 3.5 mph /  5.6 km/h 6.9 mph /  11.1 km/h 70 % 0.00 in /  0 mm
06:08 27.8 °F /  -2.3 °C 19.6 °F /  -6.9 °C 29.78 in /  1008.4 hPa West 7.3 mph /  11.7 km/h 13.8 mph /  22.2 km/h 71 % 0.00 in /  0 mm
06:13 27.8 °F /  -2.3 °C 19.6 °F /  -6.9 °C 29.78 in /  1008.4 hPa WNW 7.0 mph /  11.3 km/h 9.2 mph /  14.8 km/h 71 % 0.00 in /  0 mm
06:18 27.7 °F /  -2.4 °C 19.5 °F /  -6.9 °C 29.78 in /  1008.4 hPa West 5.7 mph /  9.2 km/h 11.5 mph /  18.5 km/h 71 % 0.00 in /  0 mm
06:23 27.7 °F /  -2.4 °C 19.5 °F /  -6.9 °C 29.79 in /  1008.7 hPa SW 8.9 mph /  14.3 km/h 16.0 mph /  25.7 km/h 71 % 0.00 in /  0 mm
06:28 27.6 °F /  -2.4 °C 19.4 °F /  -7 °C 29.78 in /  1008.4 hPa WSW 9.4 mph /  15.1 km/h 13.8 mph /  22.2 km/h 71 % 0.00 in /  0 mm
06:33 27.7 °F /  -2.4 °C 19.2 °F /  -7.1 °C 29.78 in /  1008.4 hPa West 6.7 mph /  10.8 km/h 12.0 mph /  19.3 km/h 70 % 0.00 in /  0 mm
06:38 27.6 °F /  -2.4 °C 19.4 °F /  -7 °C 29.78 in /  1008.4 hPa West 9.4 mph /  15.1 km/h 17.3 mph /  27.8 km/h 71 % 0.00 in /  0 mm
06:43 27.6 °F /  -2.4 °C 19.4 °F /  -7 °C 29.78 in /  1008.4 hPa West 6.0 mph /  9.7 km/h 16.0 mph /  25.7 km/h 71 % 0.00 in /  0 mm
06:48 27.6 °F /  -2.4 °C 19.4 °F /  -7 °C 29.78 in /  1008.4 hPa WNW 8.0 mph /  12.9 km/h 15.0 mph /  24.1 km/h 71 % 0.00 in /  0 mm
06:53 27.6 °F /  -2.4 °C 19.8 °F /  -6.8 °C 29.79 in /  1008.7 hPa West 6.0 mph /  9.7 km/h 12.0 mph /  19.3 km/h 72 % 0.00 in /  0 mm
06:58 27.6 °F /  -2.4 °C 19.4 °F /  -7 °C 29.79 in /  1008.7 hPa West 5.6 mph /  9 km/h 13.8 mph /  22.2 km/h 71 % 0.00 in /  0 mm
07:03 27.7 °F /  -2.4 °C 19.5 °F /  -6.9 °C 29.79 in /  1008.7 hPa WSW 6.4 mph /  10.3 km/h 13.8 mph /  22.2 km/h 71 % 0.00 in /  0 mm
07:08 27.8 °F /  -2.3 °C 19.3 °F /  -7.1 °C 29.79 in /  1008.7 hPa West 7.9 mph /  12.7 km/h 15.0 mph /  24.1 km/h 70 % 0.00 in /  0 mm
07:13 27.8 °F /  -2.3 °C 19.3 °F /  -7.1 °C 29.79 in /  1008.7 hPa West 6.4 mph /  10.3 km/h 9.2 mph /  14.8 km/h 70 % 0.00 in /  0 mm
07:18 27.9 °F /  -2.3 °C 19.7 °F /  -6.8 °C 29.79 in /  1008.7 hPa West 4.5 mph /  7.2 km/h 9.2 mph /  14.8 km/h 71 % 0.00 in /  0 mm
07:24 27.9 °F /  -2.3 °C 19.4 °F /  -7 °C 29.80 in /  1009 hPa NNW 6.5 mph /  10.5 km/h 12.7 mph /  20.4 km/h 70 % 0.00 in /  0 mm
07:29 28.0 °F /  -2.2 °C 19.5 °F /  -6.9 °C 29.80 in /  1009 hPa West 7.6 mph /  12.2 km/h 16.1 mph /  25.9 km/h 70 % 0.00 in /  0 mm
07:34 28.1 °F /  -2.2 °C 19.6 °F /  -6.9 °C 29.80 in /  1009 hPa West 5.1 mph /  8.2 km/h 13.8 mph /  22.2 km/h 70 % 0.00 in /  0 mm
07:39 28.2 °F /  -2.1 °C 19.7 °F /  -6.8 °C 29.80 in /  1009 hPa WNW 6.6 mph /  10.6 km/h 11.5 mph /  18.5 km/h 70 % 0.00 in /  0 mm
07:44 28.3 °F /  -2.1 °C 19.8 °F /  -6.8 °C 29.81 in /  1009.4 hPa WSW 6.4 mph /  10.3 km/h 10.4 mph /  16.7 km/h 70 % 0.00 in /  0 mm
07:49 28.3 °F /  -2.1 °C 19.8 °F /  -6.8 °C 29.81 in /  1009.4 hPa West 7.1 mph /  11.4 km/h 10.0 mph /  16.1 km/h 70 % 0.00 in /  0 mm
07:54 28.4 °F /  -2 °C 19.9 °F /  -6.7 °C 29.81 in /  1009.4 hPa WNW 6.8 mph /  10.9 km/h 14.0 mph /  22.5 km/h 70 % 0.00 in /  0 mm
07:59 28.5 °F /  -1.9 °C 20.0 °F /  -6.7 °C 29.81 in /  1009.4 hPa West 8.0 mph /  12.9 km/h 11.5 mph /  18.5 km/h 70 % 0.00 in /  0 mm
08:04 28.5 °F /  -1.9 °C 20.0 °F /  -6.7 °C 29.81 in /  1009.4 hPa NW 7.4 mph /  11.9 km/h 10.4 mph /  16.7 km/h 70 % 0.00 in /  0 mm
08:09 28.7 °F /  -1.8 °C 20.1 °F /  -6.6 °C 29.81 in /  1009.4 hPa West 4.9 mph /  7.9 km/h 10.4 mph /  16.7 km/h 70 % 0.00 in /  0 mm
08:14 28.9 °F /  -1.7 °C 20.0 °F /  -6.7 °C 29.81 in /  1009.4 hPa WNW 4.4 mph /  7.1 km/h 8.1 mph /  13 km/h 69 % 0.00 in /  0 mm
08:19 29.1 °F /  -1.6 °C 20.2 °F /  -6.6 °C 29.81 in /  1009.4 hPa WNW 5.7 mph /  9.2 km/h 12.0 mph /  19.3 km/h 69 % 0.00 in /  0 mm
08:24 29.4 °F /  -1.4 °C 20.5 °F /  -6.4 °C 29.81 in /  1009.4 hPa WSW 7.5 mph /  12.1 km/h 10.4 mph /  16.7 km/h 69 % 0.00 in /  0 mm
08:29 29.7 °F /  -1.3 °C 20.4 °F /  -6.4 °C 29.81 in /  1009.4 hPa NW 7.6 mph /  12.2 km/h 13.8 mph /  22.2 km/h 68 % 0.00 in /  0 mm
08:34 30.0 °F /  -1.1 °C 20.4 °F /  -6.4 °C 29.81 in /  1009.4 hPa WNW 5.2 mph /  8.4 km/h 9.2 mph /  14.8 km/h 67 % 0.00 in /  0 mm
08:39 30.2 °F /  -1 °C 20.6 °F /  -6.3 °C 29.81 in /  1009.4 hPa WNW 5.2 mph /  8.4 km/h 12.7 mph /  20.4 km/h 67 % 0.00 in /  0 mm
08:45 30.4 °F /  -0.9 °C 20.7 °F /  -6.3 °C 29.82 in /  1009.7 hPa WNW 8.1 mph /  13 km/h 13.0 mph /  20.9 km/h 67 % 0.00 in /  0 mm
08:50 30.6 °F /  -0.8 °C 20.2 °F /  -6.6 °C 29.82 in /  1009.7 hPa West 5.6 mph /  9 km/h 11.5 mph /  18.5 km/h 65 % 0.00 in /  0 mm
08:55 30.9 °F /  -0.6 °C 20.5 °F /  -6.4 °C 29.82 in /  1009.7 hPa West 4.5 mph /  7.2 km/h 9.2 mph /  14.8 km/h 65 % 0.00 in /  0 mm
09:00 31.2 °F /  -0.4 °C 20.8 °F /  -6.2 °C 29.82 in /  1009.7 hPa West 3.5 mph /  5.6 km/h 8.1 mph /  13 km/h 65 % 0.00 in /  0 mm
09:05 31.6 °F /  -0.2 °C 21.2 °F /  -6 °C 29.82 in /  1009.7 hPa WSW 4.1 mph /  6.6 km/h 8.0 mph /  12.9 km/h 65 % 0.00 in /  0 mm
09:10 32.1 °F /  0.1 °C 21.3 °F /  -5.9 °C 29.82 in /  1009.7 hPa NW 6.5 mph /  10.5 km/h 9.2 mph /  14.8 km/h 64 % 0.00 in /  0 mm
09:15 32.5 °F /  0.3 °C 21.3 °F /  -5.9 °C 29.82 in /  1009.7 hPa NNW 3.4 mph /  5.5 km/h 11.5 mph /  18.5 km/h 63 % 0.00 in /  0 mm
09:20 32.8 °F /  0.4 °C 21.2 °F /  -6 °C 29.82 in /  1009.7 hPa NW 7.9 mph /  12.7 km/h 9.2 mph /  14.8 km/h 62 % 0.00 in /  0 mm
09:25 32.9 °F /  0.5 °C 20.9 °F /  -6.2 °C 29.82 in /  1009.7 hPa WNW 6.1 mph /  9.8 km/h 10.4 mph /  16.7 km/h 61 % 0.00 in /  0 mm
09:30 32.9 °F /  0.5 °C 20.9 °F /  -6.2 °C 29.82 in /  1009.7 hPa WNW 6.2 mph /  10 km/h 10.4 mph /  16.7 km/h 61 % 0.00 in /  0 mm
09:35 33.0 °F /  0.6 °C 21.4 °F /  -5.9 °C 29.82 in /  1009.7 hPa WNW 0.6 mph /  1 km/h 3.5 mph /  5.6 km/h 62 % 0.00 in /  0 mm
09:40 33.3 °F /  0.7 °C 21.3 °F /  -5.9 °C 29.82 in /  1009.7 hPa NW 4.9 mph /  7.9 km/h 6.0 mph /  9.7 km/h 61 % 0.00 in /  0 mm
09:45 33.6 °F /  0.9 °C 21.6 °F /  -5.8 °C 29.82 in /  1009.7 hPa NW 4.6 mph /  7.4 km/h 11.5 mph /  18.5 km/h 61 % 0.00 in /  0 mm
09:50 33.8 °F /  1 °C 21.4 °F /  -5.9 °C 29.82 in /  1009.7 hPa WNW 4.6 mph /  7.4 km/h 10.4 mph /  16.7 km/h 60 % 0.00 in /  0 mm
09:55 34.0 °F /  1.1 °C 21.6 °F /  -5.8 °C 29.82 in /  1009.7 hPa WNW 2.5 mph /  4 km/h 4.6 mph /  7.4 km/h 60 % 0.00 in /  0 mm
10:00 34.4 °F /  1.3 °C 21.5 °F /  -5.8 °C 29.82 in /  1009.7 hPa NNW 3.0 mph /  4.8 km/h 6.9 mph /  11.1 km/h 59 % 0.00 in /  0 mm
10:05 34.6 °F /  1.4 °C 21.3 °F /  -5.9 °C 29.82 in /  1009.7 hPa WNW 4.8 mph /  7.7 km/h 9.0 mph /  14.5 km/h 58 % 0.00 in /  0 mm
10:10 34.8 °F /  1.6 °C 21.5 °F /  -5.8 °C 29.82 in /  1009.7 hPa WNW 6.8 mph /  10.9 km/h 11.0 mph /  17.7 km/h 58 % 0.00 in /  0 mm
10:15 35.2 °F /  1.8 °C 22.3 °F /  -5.4 °C 29.82 in /  1009.7 hPa NNW 2.2 mph /  3.5 km/h 3.5 mph /  5.6 km/h 59 % 0.00 in /  0 mm
10:20 35.6 °F /  2 °C 22.3 °F /  -5.4 °C 29.82 in /  1009.7 hPa WNW 7.2 mph /  11.6 km/h 15.0 mph /  24.1 km/h 58 % 0.00 in /  0 mm
10:25 35.9 °F /  2.2 °C 22.1 °F /  -5.5 °C 29.82 in /  1009.7 hPa North 5.7 mph /  9.2 km/h 10.4 mph /  16.7 km/h 57 % 0.00 in /  0 mm
10:31 36.1 °F /  2.3 °C 21.9 °F /  -5.6 °C 29.82 in /  1009.7 hPa North 5.1 mph /  8.2 km/h 9.0 mph /  14.5 km/h 56 % 0.00 in /  0 mm
10:36 36.2 °F /  2.3 °C 21.6 °F /  -5.8 °C 29.82 in /  1009.7 hPa NW 3.9 mph /  6.3 km/h 11.5 mph /  18.5 km/h 55 % 0.00 in /  0 mm
10:41 36.4 °F /  2.4 °C 21.3 °F /  -5.9 °C 29.82 in /  1009.7 hPa WNW 6.2 mph /  10 km/h 11.5 mph /  18.5 km/h 54 % 0.00 in /  0 mm
10:46 36.6 °F /  2.6 °C 21.5 °F /  -5.8 °C 29.82 in /  1009.7 hPa WNW 4.6 mph /  7.4 km/h 12.0 mph /  19.3 km/h 54 % 0.00 in /  0 mm
10:51 36.9 °F /  2.7 °C 21.8 °F /  -5.7 °C 29.81 in /  1009.4 hPa NW 3.6 mph /  5.8 km/h 6.0 mph /  9.7 km/h 54 % 0.00 in /  0 mm
10:56 37.3 °F /  2.9 °C 22.6 °F /  -5.2 °C 29.81 in /  1009.4 hPa NW 3.3 mph /  5.3 km/h 6.0 mph /  9.7 km/h 55 % 0.00 in /  0 mm
11:01 37.8 °F /  3.2 °C 22.6 °F /  -5.2 °C 29.81 in /  1009.4 hPa WNW 1.4 mph /  2.3 km/h 3.5 mph /  5.6 km/h 54 % 0.00 in /  0 mm
11:06 38.3 °F /  3.5 °C 22.2 °F /  -5.4 °C 29.81 in /  1009.4 hPa NNW 6.5 mph /  10.5 km/h 9.2 mph /  14.8 km/h 52 % 0.00 in /  0 mm
11:11 38.4 °F /  3.6 °C 21.4 °F /  -5.9 °C 29.81 in /  1009.4 hPa WSW 4.6 mph /  7.4 km/h 10.4 mph /  16.7 km/h 50 % 0.00 in /  0 mm
11:16 38.3 °F /  3.5 °C 21.7 °F /  -5.7 °C 29.81 in /  1009.4 hPa NW 6.8 mph /  10.9 km/h 11.5 mph /  18.5 km/h 51 % 0.00 in /  0 mm
11:21 38.1 °F /  3.4 °C 21.5 °F /  -5.8 °C 29.81 in /  1009.4 hPa NNW 3.7 mph /  6 km/h 8.1 mph /  13 km/h 51 % 0.00 in /  0 mm
11:26 38.4 °F /  3.6 °C 22.7 °F /  -5.2 °C 29.81 in /  1009.4 hPa WNW 4.6 mph /  7.4 km/h 6.9 mph /  11.1 km/h 53 % 0.00 in /  0 mm
11:31 38.7 °F /  3.7 °C 21.6 °F /  -5.8 °C 29.81 in /  1009.4 hPa NNW 2.9 mph /  4.7 km/h 5.8 mph /  9.3 km/h 50 % 0.00 in /  0 mm
11:36 38.8 °F /  3.8 °C 21.7 °F /  -5.7 °C 29.80 in /  1009 hPa WNW 2.8 mph /  4.5 km/h 9.2 mph /  14.8 km/h 50 % 0.00 in /  0 mm
11:41 39.1 °F /  3.9 °C 22.0 °F /  -5.6 °C 29.80 in /  1009 hPa NW 7.3 mph /  11.7 km/h 9.2 mph /  14.8 km/h 50 % 0.00 in /  0 mm
11:46 38.9 °F /  3.8 °C 22.3 °F /  -5.4 °C 29.80 in /  1009 hPa WSW 5.7 mph /  9.2 km/h 8.1 mph /  13 km/h 51 % 0.00 in /  0 mm
11:51 38.6 °F /  3.7 °C 21.5 °F /  -5.8 °C 29.80 in /  1009 hPa North 4.2 mph /  6.8 km/h 10.4 mph /  16.7 km/h 50 % 0.00 in /  0 mm
11:56 38.5 °F /  3.6 °C 22.4 °F /  -5.3 °C 29.80 in /  1009 hPa NW 1.7 mph /  2.7 km/h 8.1 mph /  13 km/h 52 % 0.00 in /  0 mm
12:01 38.6 °F /  3.7 °C 22.5 °F /  -5.3 °C 29.79 in /  1008.7 hPa WSW 7.6 mph /  12.2 km/h 13.8 mph /  22.2 km/h 52 % 0.00 in /  0 mm
12:06 38.4 °F /  3.6 °C 21.8 °F /  -5.7 °C 29.79 in /  1008.7 hPa WSW 7.1 mph /  11.4 km/h 11.5 mph /  18.5 km/h 51 % 0.00 in /  0 mm
12:11 38.3 °F /  3.5 °C 22.2 °F /  -5.4 °C 29.79 in /  1008.7 hPa NW 3.7 mph /  6 km/h 8.1 mph /  13 km/h 52 % 0.00 in /  0 mm
12:16 38.4 °F /  3.6 °C 22.3 °F /  -5.4 °C 29.79 in /  1008.7 hPa West 6.0 mph /  9.7 km/h 10.4 mph /  16.7 km/h 52 % 0.00 in /  0 mm
12:21 38.5 °F /  3.6 °C 22.4 °F /  -5.3 °C 29.79 in /  1008.7 hPa WNW 4.0 mph /  6.4 km/h 8.1 mph /  13 km/h 52 % 0.00 in /  0 mm
12:27 38.6 °F /  3.7 °C 22.0 °F /  -5.6 °C 29.79 in /  1008.7 hPa WSW 4.4 mph /  7.1 km/h 11.5 mph /  18.5 km/h 51 % 0.00 in /  0 mm
12:32 38.8 °F /  3.8 °C 22.2 °F /  -5.4 °C 29.79 in /  1008.7 hPa West 5.0 mph /  8 km/h 9.2 mph /  14.8 km/h 51 % 0.00 in /  0 mm
12:37 38.9 °F /  3.8 °C 21.8 °F /  -5.7 °C 29.78 in /  1008.4 hPa WNW 5.9 mph /  9.5 km/h 11.5 mph /  18.5 km/h 50 % 0.00 in /  0 mm
12:42 39.1 °F /  3.9 °C 22.5 °F /  -5.3 °C 29.78 in /  1008.4 hPa WNW 5.3 mph /  8.5 km/h 11.5 mph /  18.5 km/h 51 % 0.00 in /  0 mm
12:47 39.1 °F /  3.9 °C 22.0 °F /  -5.6 °C 29.78 in /  1008.4 hPa West 3.8 mph /  6.1 km/h 8.1 mph /  13 km/h 50 % 0.00 in /  0 mm
12:52 39.2 °F /  4 °C 21.6 °F /  -5.8 °C 29.78 in /  1008.4 hPa SW 8.1 mph /  13 km/h 12.0 mph /  19.3 km/h 49 % 0.00 in /  0 mm
12:57 39.2 °F /  4 °C 21.6 °F /  -5.8 °C 29.78 in /  1008.4 hPa NW 6.2 mph /  10 km/h 10.4 mph /  16.7 km/h 49 % 0.00 in /  0 mm
13:02 39.3 °F /  4.1 °C 22.2 °F /  -5.4 °C 29.78 in /  1008.4 hPa West 4.1 mph /  6.6 km/h 5.8 mph /  9.3 km/h 50 % 0.00 in /  0 mm
13:07 39.5 °F /  4.2 °C 21.9 °F /  -5.6 °C 29.78 in /  1008.4 hPa West 6.8 mph /  10.9 km/h 7.0 mph /  11.3 km/h 49 % 0.00 in /  0 mm
13:12 39.8 °F /  4.3 °C 22.2 °F /  -5.4 °C 29.77 in /  1008 hPa West 5.8 mph /  9.3 km/h 10.4 mph /  16.7 km/h 49 % 0.00 in /  0 mm
13:17 40.0 °F /  4.4 °C 21.9 °F /  -5.6 °C 29.77 in /  1008 hPa WSW 8.3 mph /  13.4 km/h 11.5 mph /  18.5 km/h 48 % 0.00 in /  0 mm
13:22 40.1 °F /  4.5 °C 22.9 °F /  -5.1 °C 29.78 in /  1008.4 hPa WSW 4.0 mph /  6.4 km/h 11.5 mph /  18.5 km/h 50 % 0.00 in /  0 mm
13:27 40.2 °F /  4.6 °C 22.5 °F /  -5.3 °C 29.77 in /  1008 hPa NW 4.5 mph /  7.2 km/h 11.5 mph /  18.5 km/h 49 % 0.00 in /  0 mm
13:32 40.2 °F /  4.6 °C 22.5 °F /  -5.3 °C 29.77 in /  1008 hPa West 5.9 mph /  9.5 km/h 11.5 mph /  18.5 km/h 49 % 0.00 in /  0 mm
13:38 40.4 °F /  4.7 °C 22.2 °F /  -5.4 °C 29.77 in /  1008 hPa West 7.3 mph /  11.7 km/h 11.5 mph /  18.5 km/h 48 % 0.00 in /  0 mm
13:43 40.6 °F /  4.8 °C 21.9 °F /  -5.6 °C 29.77 in /  1008 hPa WNW 5.7 mph /  9.2 km/h 11.5 mph /  18.5 km/h 47 % 0.00 in /  0 mm
13:48 40.6 °F /  4.8 °C 22.4 °F /  -5.3 °C 29.77 in /  1008 hPa West 3.0 mph /  4.8 km/h 8.0 mph /  12.9 km/h 48 % 0.00 in /  0 mm
13:53 40.5 °F /  4.7 °C 21.3 °F /  -5.9 °C 29.76 in /  1007.7 hPa West 6.2 mph /  10 km/h 10.4 mph /  16.7 km/h 46 % 0.00 in /  0 mm
13:58 40.3 °F /  4.6 °C 21.6 °F /  -5.8 °C 29.76 in /  1007.7 hPa WNW 4.7 mph /  7.6 km/h 11.5 mph /  18.5 km/h 47 % 0.00 in /  0 mm
14:03 40.4 °F /  4.7 °C 22.2 °F /  -5.4 °C 29.76 in /  1007.7 hPa WNW 4.4 mph /  7.1 km/h 8.1 mph /  13 km/h 48 % 0.00 in /  0 mm
14:08 40.5 °F /  4.7 °C 22.8 °F /  -5.1 °C 29.76 in /  1007.7 hPa WSW 3.1 mph /  5 km/h 6.9 mph /  11.1 km/h 49 % 0.00 in /  0 mm
14:13 40.6 °F /  4.8 °C 22.4 °F /  -5.3 °C 29.76 in /  1007.7 hPa West 4.9 mph /  7.9 km/h 6.9 mph /  11.1 km/h 48 % 0.00 in /  0 mm
14:18 40.7 °F /  4.8 °C 22.0 °F /  -5.6 °C 29.76 in /  1007.7 hPa WSW 2.5 mph /  4 km/h 5.8 mph /  9.3 km/h 47 % 0.00 in /  0 mm
14:23 40.7 °F /  4.8 °C 22.0 °F /  -5.6 °C 29.75 in /  1007.3 hPa SW 4.0 mph /  6.4 km/h 7.0 mph /  11.3 km/h 47 % 0.00 in /  0 mm
14:28 40.6 °F /  4.8 °C 21.9 °F /  -5.6 °C 29.76 in /  1007.7 hPa WNW 8.3 mph /  13.4 km/h 10.4 mph /  16.7 km/h 47 % 0.00 in /  0 mm
14:33 40.4 °F /  4.7 °C 21.7 °F /  -5.7 °C 29.76 in /  1007.7 hPa WSW 5.2 mph /  8.4 km/h 11.5 mph /  18.5 km/h 47 % 0.00 in /  0 mm
14:38 40.2 °F /  4.6 °C 21.6 °F /  -5.8 °C 29.76 in /  1007.7 hPa WSW 7.7 mph /  12.4 km/h 11.5 mph /  18.5 km/h 47 % 0.00 in /  0 mm
14:43 40.1 °F /  4.5 °C 21.5 °F /  -5.8 °C 29.76 in /  1007.7 hPa West 7.0 mph /  11.3 km/h 13.0 mph /  20.9 km/h 47 % 0.00 in /  0 mm
14:48 40.0 °F /  4.4 °C 21.4 °F /  -5.9 °C 29.76 in /  1007.7 hPa WSW 8.3 mph /  13.4 km/h 12.7 mph /  20.4 km/h 47 % 0.00 in /  0 mm
14:53 39.8 °F /  4.3 °C 21.2 °F /  -6 °C 29.76 in /  1007.7 hPa West 5.0 mph /  8 km/h 13.0 mph /  20.9 km/h 47 % 0.00 in /  0 mm
14:58 39.7 °F /  4.3 °C 22.1 °F /  -5.5 °C 29.76 in /  1007.7 hPa NW 7.0 mph /  11.3 km/h 12.7 mph /  20.4 km/h 49 % 0.00 in /  0 mm
15:03 39.5 °F /  4.2 °C 21.4 °F /  -5.9 °C 29.76 in /  1007.7 hPa West 5.0 mph /  8 km/h 13.0 mph /  20.9 km/h 48 % 0.00 in /  0 mm
15:08 39.4 °F /  4.1 °C 21.8 °F /  -5.7 °C 29.76 in /  1007.7 hPa WSW 7.0 mph /  11.3 km/h 13.0 mph /  20.9 km/h 49 % 0.00 in /  0 mm
15:13 39.4 °F /  4.1 °C 21.8 °F /  -5.7 °C 29.77 in /  1008 hPa West 8.0 mph /  12.9 km/h 15.0 mph /  24.1 km/h 49 % 0.00 in /  0 mm
15:18 39.4 °F /  4.1 °C 21.8 °F /  -5.7 °C 29.77 in /  1008 hPa WNW 8.0 mph /  12.9 km/h 16.0 mph /  25.7 km/h 49 % 0.00 in /  0 mm
15:23 39.5 °F /  4.2 °C 21.9 °F /  -5.6 °C 29.77 in /  1008 hPa West 7.8 mph /  12.6 km/h 13.8 mph /  22.2 km/h 49 % 0.00 in /  0 mm
15:28 39.4 °F /  4.1 °C 21.8 °F /  -5.7 °C 29.77 in /  1008 hPa NW 6.1 mph /  9.8 km/h 10.4 mph /  16.7 km/h 49 % 0.00 in /  0 mm
15:33 39.4 °F /  4.1 °C 22.3 °F /  -5.4 °C 29.77 in /  1008 hPa WSW 3.3 mph /  5.3 km/h 7.0 mph /  11.3 km/h 50 % 0.00 in /  0 mm
15:38 39.3 °F /  4.1 °C 22.2 °F /  -5.4 °C 29.76 in /  1007.7 hPa WSW 6.8 mph /  10.9 km/h 11.5 mph /  18.5 km/h 50 % 0.00 in /  0 mm
15:44 39.4 °F /  4.1 °C 22.3 °F /  -5.4 °C 29.76 in /  1007.7 hPa NW 6.2 mph /  10 km/h 8.1 mph /  13 km/h 50 % 0.00 in /  0 mm
15:49 39.4 °F /  4.1 °C 21.8 °F /  -5.7 °C 29.76 in /  1007.7 hPa WNW 3.6 mph /  5.8 km/h 9.2 mph /  14.8 km/h 49 % 0.00 in /  0 mm
15:54 39.4 °F /  4.1 °C 21.8 °F /  -5.7 °C 29.76 in /  1007.7 hPa WNW 5.5 mph /  8.9 km/h 11.5 mph /  18.5 km/h 49 % 0.00 in /  0 mm
15:59 39.4 °F /  4.1 °C 22.3 °F /  -5.4 °C 29.77 in /  1008 hPa West 3.4 mph /  5.5 km/h 10.0 mph /  16.1 km/h 50 % 0.00 in /  0 mm
16:04 39.5 °F /  4.2 °C 22.4 °F /  -5.3 °C 29.77 in /  1008 hPa WNW 6.4 mph /  10.3 km/h 11.5 mph /  18.5 km/h 50 % 0.00 in /  0 mm
16:09 39.5 °F /  4.2 °C 21.9 °F /  -5.6 °C 29.76 in /  1007.7 hPa West 3.7 mph /  6 km/h 7.0 mph /  11.3 km/h 49 % 0.00 in /  0 mm
16:14 39.5 °F /  4.2 °C 22.4 °F /  -5.3 °C 29.76 in /  1007.7 hPa WSW 3.9 mph /  6.3 km/h 6.9 mph /  11.1 km/h 50 % 0.00 in /  0 mm
16:19 39.4 °F /  4.1 °C 22.3 °F /  -5.4 °C 29.77 in /  1008 hPa West 3.3 mph /  5.3 km/h 5.8 mph /  9.3 km/h 50 % 0.00 in /  0 mm
16:24 39.4 °F /  4.1 °C 22.3 °F /  -5.4 °C 29.77 in /  1008 hPa West 5.2 mph /  8.4 km/h 5.2 mph /  8.4 km/h 50 % 0.00 in /  0 mm
16:29 39.3 °F /  4.1 °C 22.7 °F /  -5.2 °C 29.77 in /  1008 hPa WNW 6.7 mph /  10.8 km/h 11.5 mph /  18.5 km/h 51 % 0.00 in /  0 mm
16:34 39.2 °F /  4 °C 22.1 °F /  -5.5 °C 29.77 in /  1008 hPa WNW 3.2 mph /  5.1 km/h 9.2 mph /  14.8 km/h 50 % 0.00 in /  0 mm
16:39 39.1 °F /  3.9 °C 22.5 °F /  -5.3 °C 29.77 in /  1008 hPa West 3.2 mph /  5.1 km/h 6.9 mph /  11.1 km/h 51 % 0.00 in /  0 mm
16:44 39.0 °F /  3.9 °C 22.8 °F /  -5.1 °C 29.77 in /  1008 hPa West 3.8 mph /  6.1 km/h 4.6 mph /  7.4 km/h 52 % 0.00 in /  0 mm
16:49 38.9 °F /  3.8 °C 22.8 °F /  -5.1 °C 29.78 in /  1008.4 hPa West 6.7 mph /  10.8 km/h 10.4 mph /  16.7 km/h 52 % 0.00 in /  0 mm
16:54 38.8 °F /  3.8 °C 22.7 °F /  -5.2 °C 29.78 in /  1008.4 hPa WNW 5.4 mph /  8.7 km/h 10.4 mph /  16.7 km/h 52 % 0.00 in /  0 mm
17:00 38.7 °F /  3.7 °C 22.6 °F /  -5.2 °C 29.78 in /  1008.4 hPa NW 3.5 mph /  5.6 km/h 10.4 mph /  16.7 km/h 52 % 0.00 in /  0 mm
17:05 38.7 °F /  3.7 °C 22.6 °F /  -5.2 °C 29.78 in /  1008.4 hPa West 3.5 mph /  5.6 km/h 9.0 mph /  14.5 km/h 52 % 0.00 in /  0 mm
17:10 38.6 °F /  3.7 °C 22.5 °F /  -5.3 °C 29.78 in /  1008.4 hPa NW 2.8 mph /  4.5 km/h 4.6 mph /  7.4 km/h 52 % 0.00 in /  0 mm
17:15 38.6 °F /  3.7 °C 22.5 °F /  -5.3 °C 29.79 in /  1008.7 hPa NW 2.8 mph /  4.5 km/h 6.9 mph /  11.1 km/h 52 % 0.00 in /  0 mm
17:20 38.5 °F /  3.6 °C 22.8 °F /  -5.1 °C 29.79 in /  1008.7 hPa West 5.3 mph /  8.5 km/h 8.0 mph /  12.9 km/h 53 % 0.00 in /  0 mm
17:25 38.4 °F /  3.6 °C 22.7 °F /  -5.2 °C 29.79 in /  1008.7 hPa West 4.3 mph /  6.9 km/h 6.9 mph /  11.1 km/h 53 % 0.00 in /  0 mm
17:30 38.3 °F /  3.5 °C 22.6 °F /  -5.2 °C 29.79 in /  1008.7 hPa West 1.9 mph /  3.1 km/h 3.5 mph /  5.6 km/h 53 % 0.00 in /  0 mm
17:35 38.2 °F /  3.4 °C 23.0 °F /  -5 °C 29.80 in /  1009 hPa WNW 2.8 mph /  4.5 km/h 8.1 mph /  13 km/h 54 % 0.00 in /  0 mm
17:40 38.1 °F /  3.4 °C 23.3 °F /  -4.8 °C 29.80 in /  1009 hPa WNW 2.9 mph /  4.7 km/h 5.8 mph /  9.3 km/h 55 % 0.00 in /  0 mm
17:45 38.0 °F /  3.3 °C 22.8 °F /  -5.1 °C 29.80 in /  1009 hPa West 2.0 mph /  3.2 km/h 6.9 mph /  11.1 km/h 54 % 0.00 in /  0 mm
17:50 38.0 °F /  3.3 °C 23.3 °F /  -4.8 °C 29.81 in /  1009.4 hPa NW 3.5 mph /  5.6 km/h 6.9 mph /  11.1 km/h 55 % 0.00 in /  0 mm
17:55 37.9 °F /  3.3 °C 22.7 °F /  -5.2 °C 29.80 in /  1009 hPa WNW 2.5 mph /  4 km/h 9.2 mph /  14.8 km/h 54 % 0.00 in /  0 mm
18:01 37.9 °F /  3.3 °C 22.7 °F /  -5.2 °C 29.81 in /  1009.4 hPa WNW 3.9 mph /  6.3 km/h 8.1 mph /  13 km/h 54 % 0.00 in /  0 mm
18:06 37.9 °F /  3.3 °C 23.2 °F /  -4.9 °C 29.81 in /  1009.4 hPa WNW 3.4 mph /  5.5 km/h 4.6 mph /  7.4 km/h 55 % 0.00 in /  0 mm
18:11 37.9 °F /  3.3 °C 23.2 °F /  -4.9 °C 29.81 in /  1009.4 hPa West 2.6 mph /  4.2 km/h 5.8 mph /  9.3 km/h 55 % 0.00 in /  0 mm
18:16 37.9 °F /  3.3 °C 23.6 °F /  -4.7 °C 29.81 in /  1009.4 hPa WNW 4.5 mph /  7.2 km/h 4.6 mph /  7.4 km/h 56 % 0.00 in /  0 mm
18:21 37.9 °F /  3.3 °C 23.6 °F /  -4.7 °C 29.80 in /  1009 hPa West 3.7 mph /  6 km/h 6.0 mph /  9.7 km/h 56 % 0.00 in /  0 mm
18:26 37.9 °F /  3.3 °C 23.2 °F /  -4.9 °C 29.80 in /  1009 hPa West 3.5 mph /  5.6 km/h 5.8 mph /  9.3 km/h 55 % 0.00 in /  0 mm
18:31 37.9 °F /  3.3 °C 23.2 °F /  -4.9 °C 29.81 in /  1009.4 hPa WNW 3.3 mph /  5.3 km/h 6.0 mph /  9.7 km/h 55 % 0.00 in /  0 mm
18:36 37.9 °F /  3.3 °C 23.2 °F /  -4.9 °C 29.81 in /  1009.4 hPa West 3.0 mph /  4.8 km/h 4.0 mph /  6.4 km/h 55 % 0.00 in /  0 mm
18:41 37.9 °F /  3.3 °C 22.7 °F /  -5.2 °C 29.82 in /  1009.7 hPa West 1.0 mph /  1.6 km/h 3.5 mph /  5.6 km/h 54 % 0.00 in /  0 mm
18:46 37.9 °F /  3.3 °C 23.2 °F /  -4.9 °C 29.82 in /  1009.7 hPa West 3.2 mph /  5.1 km/h 6.9 mph /  11.1 km/h 55 % 0.00 in /  0 mm
18:51 37.9 °F /  3.3 °C 23.6 °F /  -4.7 °C 29.82 in /  1009.7 hPa West 4.0 mph /  6.4 km/h 6.9 mph /  11.1 km/h 56 % 0.00 in /  0 mm
18:56 37.9 °F /  3.3 °C 23.6 °F /  -4.7 °C 29.82 in /  1009.7 hPa WNW 1.8 mph /  2.9 km/h 4.6 mph /  7.4 km/h 56 % 0.00 in /  0 mm
19:01 37.9 °F /  3.3 °C 23.6 °F /  -4.7 °C 29.82 in /  1009.7 hPa WNW 1.8 mph /  2.9 km/h 4.6 mph /  7.4 km/h 56 % 0.00 in /  0 mm
19:06 37.9 °F /  3.3 °C 23.6 °F /  -4.7 °C 29.82 in /  1009.7 hPa WNW 3.5 mph /  5.6 km/h 9.2 mph /  14.8 km/h 56 % 0.00 in /  0 mm
19:11 37.9 °F /  3.3 °C 24.0 °F /  -4.4 °C 29.83 in /  1010 hPa West 3.1 mph /  5 km/h 4.6 mph /  7.4 km/h 57 % 0.00 in /  0 mm
19:16 37.9 °F /  3.3 °C 23.6 °F /  -4.7 °C 29.83 in /  1010 hPa WNW 2.6 mph /  4.2 km/h 6.9 mph /  11.1 km/h 56 % 0.00 in /  0 mm
19:21 37.9 °F /  3.3 °C 23.2 °F /  -4.9 °C 29.83 in /  1010 hPa WSW 2.3 mph /  3.7 km/h 4.6 mph /  7.4 km/h 55 % 0.00 in /  0 mm
19:26 37.9 °F /  3.3 °C 23.2 °F /  -4.9 °C 29.83 in /  1010 hPa West 1.7 mph /  2.7 km/h 3.5 mph /  5.6 km/h 55 % 0.00 in /  0 mm
19:32 37.8 °F /  3.2 °C 23.1 °F /  -4.9 °C 29.83 in /  1010 hPa WNW 1.8 mph /  2.9 km/h 4.6 mph /  7.4 km/h 55 % 0.00 in /  0 mm
19:37 37.9 °F /  3.3 °C 23.6 °F /  -4.7 °C 29.83 in /  1010 hPa West 0.4 mph /  0.6 km/h 3.0 mph /  4.8 km/h 56 % 0.00 in /  0 mm
19:42 37.9 °F /  3.3 °C 24.0 °F /  -4.4 °C 29.83 in /  1010 hPa WSW 1.9 mph /  3.1 km/h 3.5 mph /  5.6 km/h 57 % 0.00 in /  0 mm
19:47 37.8 °F /  3.2 °C 24.7 °F /  -4.1 °C 29.83 in /  1010 hPa West 2.2 mph /  3.5 km/h 4.0 mph /  6.4 km/h 59 % 0.00 in /  0 mm
19:52 37.7 °F /  3.2 °C 24.6 °F /  -4.1 °C 29.83 in /  1010 hPa West 2.7 mph /  4.3 km/h 3.5 mph /  5.6 km/h 59 % 0.00 in /  0 mm
19:57 37.7 °F /  3.2 °C 24.6 °F /  -4.1 °C 29.83 in /  1010 hPa West 4.4 mph /  7.1 km/h 6.9 mph /  11.1 km/h 59 % 0.00 in /  0 mm
20:02 37.6 °F /  3.1 °C 24.1 °F /  -4.4 °C 29.83 in /  1010 hPa WSW 1.6 mph /  2.6 km/h 3.5 mph /  5.6 km/h 58 % 0.00 in /  0 mm
20:07 37.5 °F /  3.1 °C 24.1 °F /  -4.4 °C 29.83 in /  1010 hPa West 1.2 mph /  1.9 km/h 3.5 mph /  5.6 km/h 58 % 0.00 in /  0 mm
20:12 37.5 °F /  3.1 °C 24.1 °F /  -4.4 °C 29.83 in /  1010 hPa West 3.3 mph /  5.3 km/h 4.6 mph /  7.4 km/h 58 % 0.00 in /  0 mm
20:17 37.4 °F /  3 °C 24.0 °F /  -4.4 °C 29.83 in /  1010 hPa WSW 2.5 mph /  4 km/h 3.5 mph /  5.6 km/h 58 % 0.00 in /  0 mm
20:22 37.3 °F /  2.9 °C 23.9 °F /  -4.5 °C 29.84 in /  1010.4 hPa West 1.7 mph /  2.7 km/h 3.5 mph /  5.6 km/h 58 % 0.00 in /  0 mm
20:27 37.3 °F /  2.9 °C 24.3 °F /  -4.3 °C 29.84 in /  1010.4 hPa WSW 3.6 mph /  5.8 km/h 6.9 mph /  11.1 km/h 59 % 0.00 in /  0 mm
20:32 37.2 °F /  2.9 °C 24.2 °F /  -4.3 °C 29.84 in /  1010.4 hPa SW 3.4 mph /  5.5 km/h 4.6 mph /  7.4 km/h 59 % 0.00 in /  0 mm
20:38 37.3 °F /  2.9 °C 24.3 °F /  -4.3 °C 29.84 in /  1010.4 hPa West 2.6 mph /  4.2 km/h 7.0 mph /  11.3 km/h 59 % 0.00 in /  0 mm
20:43 37.2 °F /  2.9 °C 23.8 °F /  -4.6 °C 29.84 in /  1010.4 hPa WSW 4.3 mph /  6.9 km/h 5.8 mph /  9.3 km/h 58 % 0.00 in /  0 mm
20:48 37.2 °F /  2.9 °C 23.8 °F /  -4.6 °C 29.84 in /  1010.4 hPa West 4.4 mph /  7.1 km/h 8.1 mph /  13 km/h 58 % 0.00 in /  0 mm
20:53 37.2 °F /  2.9 °C 23.8 °F /  -4.6 °C 29.84 in /  1010.4 hPa WSW 0.9 mph /  1.4 km/h 2.3 mph /  3.7 km/h 58 % 0.00 in /  0 mm
20:58 37.1 °F /  2.8 °C 23.7 °F /  -4.6 °C 29.84 in /  1010.4 hPa SW 2.3 mph /  3.7 km/h 4.6 mph /  7.4 km/h 58 % 0.00 in /  0 mm
21:03 37.2 °F /  2.9 °C 23.8 °F /  -4.6 °C 29.85 in /  1010.7 hPa WNW 1.1 mph /  1.8 km/h 2.3 mph /  3.7 km/h 58 % 0.00 in /  0 mm
21:08 37.2 °F /  2.9 °C 23.8 °F /  -4.6 °C 29.85 in /  1010.7 hPa WSW 1.4 mph /  2.3 km/h 3.5 mph /  5.6 km/h 58 % 0.00 in /  0 mm
21:13 37.1 °F /  2.8 °C 24.1 °F /  -4.4 °C 29.85 in /  1010.7 hPa WSW 1.6 mph /  2.6 km/h 3.5 mph /  5.6 km/h 59 % 0.00 in /  0 mm
21:18 37.1 °F /  2.8 °C 24.1 °F /  -4.4 °C 29.85 in /  1010.7 hPa WSW 3.3 mph /  5.3 km/h 5.0 mph /  8 km/h 59 % 0.00 in /  0 mm
21:23 37.1 °F /  2.8 °C 24.5 °F /  -4.2 °C 29.85 in /  1010.7 hPa West 3.2 mph /  5.1 km/h 3.5 mph /  5.6 km/h 60 % 0.00 in /  0 mm
21:28 37.1 °F /  2.8 °C 24.1 °F /  -4.4 °C 29.85 in /  1010.7 hPa West 2.9 mph /  4.7 km/h 4.6 mph /  7.4 km/h 59 % 0.00 in /  0 mm
21:33 37.1 °F /  2.8 °C 24.1 °F /  -4.4 °C 29.86 in /  1011.1 hPa WSW 2.4 mph /  3.9 km/h 4.6 mph /  7.4 km/h 59 % 0.00 in /  0 mm
21:38 37.1 °F /  2.8 °C 24.5 °F /  -4.2 °C 29.86 in /  1011.1 hPa WSW 2.0 mph /  3.2 km/h 7.0 mph /  11.3 km/h 60 % 0.00 in /  0 mm
21:43 37.0 °F /  2.8 °C 24.8 °F /  -4 °C 29.86 in /  1011.1 hPa WSW 2.0 mph /  3.2 km/h 7.0 mph /  11.3 km/h 61 % 0.00 in /  0 mm
21:48 37.0 °F /  2.8 °C 24.8 °F /  -4 °C 29.86 in /  1011.1 hPa WSW 3.0 mph /  4.8 km/h 5.0 mph /  8 km/h 61 % 0.00 in /  0 mm
21:53 37.0 °F /  2.8 °C 25.2 °F /  -3.8 °C 29.86 in /  1011.1 hPa WSW 2.0 mph /  3.2 km/h 9.0 mph /  14.5 km/h 62 % 0.00 in /  0 mm
21:58 36.9 °F /  2.7 °C 25.1 °F /  -3.8 °C 29.85 in /  1010.7 hPa WSW 3.1 mph /  5 km/h 5.0 mph /  8 km/h 62 % 0.00 in /  0 mm
22:03 36.8 °F /  2.7 °C 25.0 °F /  -3.9 °C 29.86 in /  1011.1 hPa WSW 2.5 mph /  4 km/h 5.8 mph /  9.3 km/h 62 % 0.00 in /  0 mm
22:08 36.8 °F /  2.7 °C 24.6 °F /  -4.1 °C 29.86 in /  1011.1 hPa WSW 3.4 mph /  5.5 km/h 9.2 mph /  14.8 km/h 61 % 0.00 in /  0 mm
22:13 36.7 °F /  2.6 °C 24.1 °F /  -4.4 °C 29.85 in /  1010.7 hPa West 2.3 mph /  3.7 km/h 3.5 mph /  5.6 km/h 60 % 0.00 in /  0 mm
22:18 36.6 °F /  2.6 °C 24.0 °F /  -4.4 °C 29.86 in /  1011.1 hPa WSW 1.6 mph /  2.6 km/h 3.5 mph /  5.6 km/h 60 % 0.00 in /  0 mm
22:24 36.6 °F /  2.6 °C 23.6 °F /  -4.7 °C 29.86 in /  1011.1 hPa WNW 1.3 mph /  2.1 km/h 2.3 mph /  3.7 km/h 59 % 0.00 in /  0 mm
22:29 36.6 °F /  2.6 °C 23.6 °F /  -4.7 °C 29.86 in /  1011.1 hPa WSW 3.0 mph /  4.8 km/h 5.8 mph /  9.3 km/h 59 % 0.00 in /  0 mm
22:34 36.5 °F /  2.5 °C 23.5 °F /  -4.7 °C 29.86 in /  1011.1 hPa West 1.6 mph /  2.6 km/h 3.5 mph /  5.6 km/h 59 % 0.00 in /  0 mm
22:39 36.5 °F /  2.5 °C 23.5 °F /  -4.7 °C 29.86 in /  1011.1 hPa West 2.5 mph /  4 km/h 3.5 mph /  5.6 km/h 59 % 0.00 in /  0 mm
22:44 36.4 °F /  2.4 °C 23.4 °F /  -4.8 °C 29.86 in /  1011.1 hPa SW 2.9 mph /  4.7 km/h 4.6 mph /  7.4 km/h 59 % 0.00 in /  0 mm
22:49 36.3 °F /  2.4 °C 23.7 °F /  -4.6 °C 29.86 in /  1011.1 hPa WSW 0.6 mph /  1 km/h 2.3 mph /  3.7 km/h 60 % 0.00 in /  0 mm
22:54 36.2 °F /  2.3 °C 23.6 °F /  -4.7 °C 29.86 in /  1011.1 hPa WSW 0.6 mph /  1 km/h 5.0 mph /  8 km/h 60 % 0.00 in /  0 mm
22:59 36.1 °F /  2.3 °C 23.5 °F /  -4.7 °C 29.86 in /  1011.1 hPa WSW 1.4 mph /  2.3 km/h 3.5 mph /  5.6 km/h 60 % 0.00 in /  0 mm
23:04 36.0 °F /  2.2 °C 23.0 °F /  -5 °C 29.86 in /  1011.1 hPa WSW 2.5 mph /  4 km/h 4.0 mph /  6.4 km/h 59 % 0.00 in /  0 mm
23:09 35.9 °F /  2.2 °C 23.0 °F /  -5 °C 29.86 in /  1011.1 hPa SW 2.9 mph /  4.7 km/h 6.0 mph /  9.7 km/h 59 % 0.00 in /  0 mm
23:14 35.8 °F /  2.1 °C 22.9 °F /  -5.1 °C 29.86 in /  1011.1 hPa WSW 1.0 mph /  1.6 km/h 4.6 mph /  7.4 km/h 59 % 0.00 in /  0 mm
23:19 35.7 °F /  2.1 °C 23.6 °F /  -4.7 °C 29.86 in /  1011.1 hPa WSW 0.3 mph /  0.5 km/h 1.2 mph /  1.9 km/h 61 % 0.00 in /  0 mm
23:24 35.6 °F /  2 °C 23.5 °F /  -4.7 °C 29.86 in /  1011.1 hPa WSW 2.6 mph /  4.2 km/h 3.5 mph /  5.6 km/h 61 % 0.00 in /  0 mm
23:29 35.5 °F /  1.9 °C 23.4 °F /  -4.8 °C 29.86 in /  1011.1 hPa WSW 0.2 mph /  0.3 km/h 1.2 mph /  1.9 km/h 61 % 0.00 in /  0 mm
23:34 35.5 °F /  1.9 °C 23.4 °F /  -4.8 °C 29.86 in /  1011.1 hPa WSW 0.2 mph /  0.3 km/h 1.2 mph /  1.9 km/h 61 % 0.00 in /  0 mm
23:39 35.3 °F /  1.8 °C 23.2 °F /  -4.9 °C 29.86 in /  1011.1 hPa WSW 0.8 mph /  1.3 km/h 3.5 mph /  5.6 km/h 61 % 0.00 in /  0 mm
23:45 35.1 °F /  1.7 °C 23.4 °F /  -4.8 °C 29.86 in /  1011.1 hPa Calm     62 % 0.00 in /  0 mm
23:50 34.8 °F /  1.6 °C 23.1 °F /  -4.9 °C 29.88 in /  1011.7 hPa WSW 0.3 mph /  0.5 km/h 1.2 mph /  1.9 km/h 62 % 0.00 in /  0 mm
23:55 34.5 °F /  1.4 °C 23.2 °F /  -4.9 °C 29.87 in /  1011.4 hPa Calm     63 % 0.00 in /  0 mm
Crab Meadow Weather
Compliments of Weather Underground - 3 mb

Script developed by  Jim McMurry - jmcmurry@mwt.net Adapted for the template by  Wim van der Kuil - Leuven-Template.eu

Recycling: A used aluminum can is recycled and back on the grocery shelf as a new can, in as little as 60 days.